sensor_id;sensor_type;location;lat;lon;timestamp;P1;durP1;ratioP1;P2;durP2;ratioP2
12896;SDS011;6516;35.028;32.372;2022-09-01T00:02:11;25.77;;;16.47;;
12896;SDS011;6516;35.028;32.372;2022-09-01T00:04:42;25.83;;;16.33;;
12896;SDS011;6516;35.028;32.372;2022-09-01T00:07:11;29.05;;;17.50;;
12896;SDS011;6516;35.028;32.372;2022-09-01T00:09:40;26.55;;;17.20;;
12896;SDS011;6516;35.028;32.372;2022-09-01T00:12:09;24.23;;;16.63;;
12896;SDS011;6516;35.028;32.372;2022-09-01T00:14:38;25.30;;;16.40;;
12896;SDS011;6516;35.028;32.372;2022-09-01T00:17:08;25.10;;;17.42;;
12896;SDS011;6516;35.028;32.372;2022-09-01T00:19:37;28.25;;;17.90;;
12896;SDS011;6516;35.028;32.372;2022-09-01T00:22:07;29.38;;;17.23;;
12896;SDS011;6516;35.028;32.372;2022-09-01T00:24:35;27.15;;;16.65;;
12896;SDS011;6516;35.028;32.372;2022-09-01T00:27:03;22.50;;;16.60;;
12896;SDS011;6516;35.028;32.372;2022-09-01T00:29:31;21.92;;;15.82;;
12896;SDS011;6516;35.028;32.372;2022-09-01T00:31:59;24.80;;;17.45;;
12896;SDS011;6516;35.028;32.372;2022-09-01T00:34:27;23.85;;;16.67;;
12896;SDS011;6516;35.028;32.372;2022-09-01T00:36:54;24.15;;;16.70;;
12896;SDS011;6516;35.028;32.372;2022-09-01T00:39:24;30.33;;;17.00;;
12896;SDS011;6516;35.028;32.372;2022-09-01T00:41:52;25.40;;;17.17;;
12896;SDS011;6516;35.028;32.372;2022-09-01T00:44:20;24.75;;;17.67;;
12896;SDS011;6516;35.028;32.372;2022-09-01T00:46:51;26.48;;;17.83;;
12896;SDS011;6516;35.028;32.372;2022-09-01T00:49:22;28.25;;;18.85;;
12896;SDS011;6516;35.028;32.372;2022-09-01T00:51:58;28.87;;;19.20;;
12896;SDS011;6516;35.028;32.372;2022-09-01T00:54:32;26.83;;;18.70;;
12896;SDS011;6516;35.028;32.372;2022-09-01T00:57:04;27.75;;;18.15;;
12896;SDS011;6516;35.028;32.372;2022-09-01T00:59:34;27.88;;;17.00;;
12896;SDS011;6516;35.028;32.372;2022-09-01T01:02:09;23.25;;;16.35;;
12896;SDS011;6516;35.028;32.372;2022-09-01T01:04:37;24.83;;;16.67;;
12896;SDS011;6516;35.028;32.372;2022-09-01T01:07:08;21.75;;;16.25;;
12896;SDS011;6516;35.028;32.372;2022-09-01T01:09:41;28.70;;;17.60;;
12896;SDS011;6516;35.028;32.372;2022-09-01T01:12:10;26.38;;;17.77;;
12896;SDS011;6516;35.028;32.372;2022-09-01T01:14:42;29.35;;;18.00;;
12896;SDS011;6516;35.028;32.372;2022-09-01T01:17:14;25.53;;;18.17;;
12896;SDS011;6516;35.028;32.372;2022-09-01T01:19:43;25.42;;;17.80;;
12896;SDS011;6516;35.028;32.372;2022-09-01T01:22:35;30.50;;;18.77;;
12896;SDS011;6516;35.028;32.372;2022-09-01T01:25:32;26.33;;;18.48;;
12896;SDS011;6516;35.028;32.372;2022-09-01T01:28:04;29.38;;;18.77;;
12896;SDS011;6516;35.028;32.372;2022-09-01T01:30:39;31.83;;;19.03;;
12896;SDS011;6516;35.028;32.372;2022-09-01T01:33:15;28.13;;;17.20;;
12896;SDS011;6516;35.028;32.372;2022-09-01T01:35:43;25.98;;;16.90;;
12896;SDS011;6516;35.028;32.372;2022-09-01T01:38:12;21.90;;;16.35;;
12896;SDS011;6516;35.028;32.372;2022-09-01T01:40:42;26.95;;;17.38;;
12896;SDS011;6516;35.028;32.372;2022-09-01T01:43:10;25.17;;;17.10;;
12896;SDS011;6516;35.028;32.372;2022-09-01T01:45:46;27.45;;;16.88;;
12896;SDS011;6516;35.028;32.372;2022-09-01T01:48:16;24.35;;;17.73;;
12896;SDS011;6516;35.028;32.372;2022-09-01T01:50:49;27.23;;;17.67;;
12896;SDS011;6516;35.028;32.372;2022-09-01T01:53:18;26.70;;;17.70;;
12896;SDS011;6516;35.028;32.372;2022-09-01T01:55:48;30.23;;;18.37;;
12896;SDS011;6516;35.028;32.372;2022-09-01T01:58:16;28.40;;;18.85;;
12896;SDS011;6516;35.028;32.372;2022-09-01T02:00:46;27.58;;;17.67;;
12896;SDS011;6516;35.028;32.372;2022-09-01T02:03:17;25.27;;;17.70;;
12896;SDS011;6516;35.028;32.372;2022-09-01T02:05:50;27.40;;;17.10;;
12896;SDS011;6516;35.028;32.372;2022-09-01T02:08:20;22.97;;;16.27;;
12896;SDS011;6516;35.028;32.372;2022-09-01T02:10:52;27.65;;;18.50;;
12896;SDS011;6516;35.028;32.372;2022-09-01T02:13:24;31.35;;;18.80;;
12896;SDS011;6516;35.028;32.372;2022-09-01T02:15:56;26.58;;;17.58;;
12896;SDS011;6516;35.028;32.372;2022-09-01T02:18:27;26.75;;;16.67;;
12896;SDS011;6516;35.028;32.372;2022-09-01T02:21:00;26.83;;;17.60;;
12896;SDS011;6516;35.028;32.372;2022-09-01T02:23:34;26.40;;;16.42;;
12896;SDS011;6516;35.028;32.372;2022-09-01T02:26:04;23.27;;;15.68;;
12896;SDS011;6516;35.028;32.372;2022-09-01T02:28:35;22.98;;;16.38;;
12896;SDS011;6516;35.028;32.372;2022-09-01T02:31:07;28.63;;;16.88;;
12896;SDS011;6516;35.028;32.372;2022-09-01T02:33:37;26.40;;;16.17;;
12896;SDS011;6516;35.028;32.372;2022-09-01T02:36:10;27.88;;;16.85;;
12896;SDS011;6516;35.028;32.372;2022-09-01T02:38:41;24.60;;;16.75;;
12896;SDS011;6516;35.028;32.372;2022-09-01T02:41:14;30.17;;;17.77;;
12896;SDS011;6516;35.028;32.372;2022-09-01T02:43:44;28.27;;;16.63;;
12896;SDS011;6516;35.028;32.372;2022-09-01T02:46:13;24.60;;;17.03;;
12896;SDS011;6516;35.028;32.372;2022-09-01T02:48:42;28.45;;;17.27;;
12896;SDS011;6516;35.028;32.372;2022-09-01T02:51:17;27.95;;;18.23;;
12896;SDS011;6516;35.028;32.372;2022-09-01T02:53:49;30.67;;;18.52;;
12896;SDS011;6516;35.028;32.372;2022-09-01T02:56:19;27.60;;;17.58;;
12896;SDS011;6516;35.028;32.372;2022-09-01T02:58:49;28.67;;;16.33;;
12896;SDS011;6516;35.028;32.372;2022-09-01T03:01:18;22.40;;;15.48;;
12896;SDS011;6516;35.028;32.372;2022-09-01T03:03:49;29.05;;;16.52;;
12896;SDS011;6516;35.028;32.372;2022-09-01T03:06:18;23.40;;;15.60;;
12896;SDS011;6516;35.028;32.372;2022-09-01T03:08:48;25.77;;;16.83;;
12896;SDS011;6516;35.028;32.372;2022-09-01T03:11:19;24.27;;;16.37;;
12896;SDS011;6516;35.028;32.372;2022-09-01T03:13:48;24.27;;;16.27;;
12896;SDS011;6516;35.028;32.372;2022-09-01T03:16:16;26.20;;;17.38;;
12896;SDS011;6516;35.028;32.372;2022-09-01T03:18:43;27.67;;;17.05;;
12896;SDS011;6516;35.028;32.372;2022-09-01T03:21:11;25.40;;;17.02;;
12896;SDS011;6516;35.028;32.372;2022-09-01T03:23:40;26.90;;;17.63;;
12896;SDS011;6516;35.028;32.372;2022-09-01T03:26:09;28.33;;;17.95;;
12896;SDS011;6516;35.028;32.372;2022-09-01T03:28:39;27.73;;;18.33;;
12896;SDS011;6516;35.028;32.372;2022-09-01T03:31:07;26.75;;;18.23;;
12896;SDS011;6516;35.028;32.372;2022-09-01T03:33:35;26.35;;;16.83;;
12896;SDS011;6516;35.028;32.372;2022-09-01T03:36:03;26.13;;;15.47;;
12896;SDS011;6516;35.028;32.372;2022-09-01T03:38:33;26.60;;;16.35;;
12896;SDS011;6516;35.028;32.372;2022-09-01T03:41:02;21.08;;;15.23;;
12896;SDS011;6516;35.028;32.372;2022-09-01T03:43:32;26.30;;;16.08;;
12896;SDS011;6516;35.028;32.372;2022-09-01T03:46:02;27.20;;;16.85;;
12896;SDS011;6516;35.028;32.372;2022-09-01T03:48:30;25.23;;;16.37;;
12896;SDS011;6516;35.028;32.372;2022-09-01T03:50:59;24.50;;;16.27;;
12896;SDS011;6516;35.028;32.372;2022-09-01T03:53:28;24.35;;;17.15;;
12896;SDS011;6516;35.028;32.372;2022-09-01T03:56:02;26.98;;;16.60;;
12896;SDS011;6516;35.028;32.372;2022-09-01T03:58:30;26.77;;;16.77;;
12896;SDS011;6516;35.028;32.372;2022-09-01T04:00:59;30.23;;;18.07;;
12896;SDS011;6516;35.028;32.372;2022-09-01T04:03:31;27.15;;;17.58;;
12896;SDS011;6516;35.028;32.372;2022-09-01T04:06:00;33.50;;;19.60;;
12896;SDS011;6516;35.028;32.372;2022-09-01T04:08:28;32.15;;;19.88;;
12896;SDS011;6516;35.028;32.372;2022-09-01T04:10:57;28.13;;;18.45;;
12896;SDS011;6516;35.028;32.372;2022-09-01T04:13:30;25.03;;;18.03;;
12896;SDS011;6516;35.028;32.372;2022-09-01T04:16:05;25.40;;;17.73;;
12896;SDS011;6516;35.028;32.372;2022-09-01T04:19:04;31.20;;;18.90;;
12896;SDS011;6516;35.028;32.372;2022-09-01T04:21:40;28.30;;;18.08;;
12896;SDS011;6516;35.028;32.372;2022-09-01T04:24:09;27.30;;;18.80;;
12896;SDS011;6516;35.028;32.372;2022-09-01T04:26:39;27.37;;;17.70;;
12896;SDS011;6516;35.028;32.372;2022-09-01T04:29:07;23.70;;;17.80;;
12896;SDS011;6516;35.028;32.372;2022-09-01T04:31:38;25.70;;;18.23;;
12896;SDS011;6516;35.028;32.372;2022-09-01T04:34:06;30.65;;;17.67;;
12896;SDS011;6516;35.028;32.372;2022-09-01T04:36:36;26.02;;;18.17;;
12896;SDS011;6516;35.028;32.372;2022-09-01T04:39:06;26.83;;;17.77;;
12896;SDS011;6516;35.028;32.372;2022-09-01T04:41:35;23.38;;;17.00;;
12896;SDS011;6516;35.028;32.372;2022-09-01T04:44:05;24.65;;;17.20;;
12896;SDS011;6516;35.028;32.372;2022-09-01T04:46:35;24.83;;;16.63;;
12896;SDS011;6516;35.028;32.372;2022-09-01T04:49:10;31.77;;;16.85;;
12896;SDS011;6516;35.028;32.372;2022-09-01T04:51:44;26.43;;;15.73;;
12896;SDS011;6516;35.028;32.372;2022-09-01T04:54:15;22.73;;;15.00;;
12896;SDS011;6516;35.028;32.372;2022-09-01T04:56:44;21.40;;;13.98;;
12896;SDS011;6516;35.028;32.372;2022-09-01T04:59:15;23.20;;;13.00;;
12896;SDS011;6516;35.028;32.372;2022-09-01T05:01:47;21.70;;;13.25;;
12896;SDS011;6516;35.028;32.372;2022-09-01T05:04:20;19.60;;;12.53;;
12896;SDS011;6516;35.028;32.372;2022-09-01T05:06:52;17.58;;;11.95;;
12896;SDS011;6516;35.028;32.372;2022-09-01T05:09:24;25.33;;;12.77;;
12896;SDS011;6516;35.028;32.372;2022-09-01T05:11:53;17.75;;;12.07;;
12896;SDS011;6516;35.028;32.372;2022-09-01T05:14:22;22.15;;;12.52;;
12896;SDS011;6516;35.028;32.372;2022-09-01T05:16:51;19.97;;;11.13;;
12896;SDS011;6516;35.028;32.372;2022-09-01T05:19:23;17.30;;;11.43;;
12896;SDS011;6516;35.028;32.372;2022-09-01T05:21:54;18.27;;;11.27;;
12896;SDS011;6516;35.028;32.372;2022-09-01T05:24:23;18.20;;;11.25;;
12896;SDS011;6516;35.028;32.372;2022-09-01T05:26:59;21.67;;;11.75;;
12896;SDS011;6516;35.028;32.372;2022-09-01T05:29:27;23.20;;;11.03;;
12896;SDS011;6516;35.028;32.372;2022-09-01T05:31:57;18.75;;;10.48;;
12896;SDS011;6516;35.028;32.372;2022-09-01T05:34:34;17.45;;;10.32;;
12896;SDS011;6516;35.028;32.372;2022-09-01T05:37:03;18.00;;;10.70;;
12896;SDS011;6516;35.028;32.372;2022-09-01T05:39:32;14.88;;;9.85;;
12896;SDS011;6516;35.028;32.372;2022-09-01T05:42:02;17.10;;;10.20;;
12896;SDS011;6516;35.028;32.372;2022-09-01T05:44:32;19.50;;;10.07;;
12896;SDS011;6516;35.028;32.372;2022-09-01T05:47:02;17.63;;;9.70;;
12896;SDS011;6516;35.028;32.372;2022-09-01T05:49:33;13.38;;;9.90;;
12896;SDS011;6516;35.028;32.372;2022-09-01T05:52:01;19.13;;;10.02;;
12896;SDS011;6516;35.028;32.372;2022-09-01T05:54:29;13.80;;;9.17;;
12896;SDS011;6516;35.028;32.372;2022-09-01T05:56:58;16.48;;;9.73;;
12896;SDS011;6516;35.028;32.372;2022-09-01T05:59:27;13.75;;;9.35;;
12896;SDS011;6516;35.028;32.372;2022-09-01T06:01:57;18.77;;;9.07;;
12896;SDS011;6516;35.028;32.372;2022-09-01T06:04:28;23.13;;;9.75;;
12896;SDS011;6516;35.028;32.372;2022-09-01T06:06:56;16.33;;;8.87;;
12896;SDS011;6516;35.028;32.372;2022-09-01T06:09:24;15.52;;;9.07;;
12896;SDS011;6516;35.028;32.372;2022-09-01T06:11:52;19.23;;;9.23;;
12896;SDS011;6516;35.028;32.372;2022-09-01T06:14:21;15.88;;;8.98;;
12896;SDS011;6516;35.028;32.372;2022-09-01T06:16:49;17.13;;;9.55;;
12896;SDS011;6516;35.028;32.372;2022-09-01T06:19:18;17.50;;;9.10;;
12896;SDS011;6516;35.028;32.372;2022-09-01T06:21:47;17.77;;;9.45;;
12896;SDS011;6516;35.028;32.372;2022-09-01T06:24:15;10.98;;;8.80;;
12896;SDS011;6516;35.028;32.372;2022-09-01T06:26:43;19.13;;;8.82;;
12896;SDS011;6516;35.028;32.372;2022-09-01T06:29:11;17.63;;;9.13;;
12896;SDS011;6516;35.028;32.372;2022-09-01T06:31:40;15.60;;;7.80;;
12896;SDS011;6516;35.028;32.372;2022-09-01T06:34:11;15.07;;;7.75;;
12896;SDS011;6516;35.028;32.372;2022-09-01T06:36:42;18.45;;;9.35;;
12896;SDS011;6516;35.028;32.372;2022-09-01T06:39:14;12.13;;;7.40;;
12896;SDS011;6516;35.028;32.372;2022-09-01T06:41:45;15.02;;;8.05;;
12896;SDS011;6516;35.028;32.372;2022-09-01T06:44:16;12.47;;;8.10;;
12896;SDS011;6516;35.028;32.372;2022-09-01T06:46:46;15.13;;;8.90;;
12896;SDS011;6516;35.028;32.372;2022-09-01T06:49:15;17.90;;;8.80;;
12896;SDS011;6516;35.028;32.372;2022-09-01T06:51:43;14.43;;;8.15;;
12896;SDS011;6516;35.028;32.372;2022-09-01T06:54:15;17.02;;;8.77;;
12896;SDS011;6516;35.028;32.372;2022-09-01T06:56:44;18.63;;;7.83;;
12896;SDS011;6516;35.028;32.372;2022-09-01T06:59:12;16.83;;;7.78;;
12896;SDS011;6516;35.028;32.372;2022-09-01T07:01:40;13.30;;;7.95;;
12896;SDS011;6516;35.028;32.372;2022-09-01T07:04:08;17.92;;;8.02;;
12896;SDS011;6516;35.028;32.372;2022-09-01T07:06:38;14.43;;;7.88;;
12896;SDS011;6516;35.028;32.372;2022-09-01T07:09:07;13.10;;;7.10;;
12896;SDS011;6516;35.028;32.372;2022-09-01T07:11:38;17.85;;;7.85;;
12896;SDS011;6516;35.028;32.372;2022-09-01T07:14:07;15.32;;;8.07;;
12896;SDS011;6516;35.028;32.372;2022-09-01T07:16:36;17.52;;;7.70;;
12896;SDS011;6516;35.028;32.372;2022-09-01T07:19:05;17.35;;;8.18;;
12896;SDS011;6516;35.028;32.372;2022-09-01T07:21:39;16.40;;;7.57;;
12896;SDS011;6516;35.028;32.372;2022-09-01T07:24:08;14.38;;;7.30;;
12896;SDS011;6516;35.028;32.372;2022-09-01T07:26:39;14.35;;;7.68;;
12896;SDS011;6516;35.028;32.372;2022-09-01T07:29:07;15.27;;;7.32;;
12896;SDS011;6516;35.028;32.372;2022-09-01T07:31:36;17.27;;;7.13;;
12896;SDS011;6516;35.028;32.372;2022-09-01T07:34:08;12.40;;;6.97;;
12896;SDS011;6516;35.028;32.372;2022-09-01T07:36:38;16.10;;;7.32;;
12896;SDS011;6516;35.028;32.372;2022-09-01T07:39:07;19.05;;;8.18;;
12896;SDS011;6516;35.028;32.372;2022-09-01T07:41:39;18.45;;;8.05;;
12896;SDS011;6516;35.028;32.372;2022-09-01T07:44:08;17.80;;;7.32;;
12896;SDS011;6516;35.028;32.372;2022-09-01T07:46:39;14.13;;;7.13;;
12896;SDS011;6516;35.028;32.372;2022-09-01T07:49:07;17.38;;;7.60;;
12896;SDS011;6516;35.028;32.372;2022-09-01T07:51:36;16.13;;;7.68;;
12896;SDS011;6516;35.028;32.372;2022-09-01T07:54:04;16.63;;;7.45;;
12896;SDS011;6516;35.028;32.372;2022-09-01T07:56:32;15.73;;;7.32;;
12896;SDS011;6516;35.028;32.372;2022-09-01T07:59:03;18.80;;;7.87;;
12896;SDS011;6516;35.028;32.372;2022-09-01T08:01:31;16.38;;;7.43;;
12896;SDS011;6516;35.028;32.372;2022-09-01T08:03:59;13.27;;;7.22;;
12896;SDS011;6516;35.028;32.372;2022-09-01T08:06:28;19.88;;;7.30;;
12896;SDS011;6516;35.028;32.372;2022-09-01T08:08:57;17.00;;;7.78;;
12896;SDS011;6516;35.028;32.372;2022-09-01T08:11:26;13.87;;;7.10;;
12896;SDS011;6516;35.028;32.372;2022-09-01T08:13:56;14.43;;;6.78;;
12896;SDS011;6516;35.028;32.372;2022-09-01T08:16:29;15.05;;;6.60;;
12896;SDS011;6516;35.028;32.372;2022-09-01T08:18:57;17.20;;;6.75;;
12896;SDS011;6516;35.028;32.372;2022-09-01T08:21:25;10.77;;;6.40;;
12896;SDS011;6516;35.028;32.372;2022-09-01T08:23:53;16.27;;;7.17;;
12896;SDS011;6516;35.028;32.372;2022-09-01T08:26:23;12.52;;;6.68;;
12896;SDS011;6516;35.028;32.372;2022-09-01T08:28:52;17.42;;;7.00;;
12896;SDS011;6516;35.028;32.372;2022-09-01T08:31:20;13.13;;;6.10;;
12896;SDS011;6516;35.028;32.372;2022-09-01T08:33:52;14.80;;;6.40;;
12896;SDS011;6516;35.028;32.372;2022-09-01T08:36:20;16.93;;;7.20;;
12896;SDS011;6516;35.028;32.372;2022-09-01T08:38:48;12.68;;;6.32;;
12896;SDS011;6516;35.028;32.372;2022-09-01T08:41:18;12.80;;;6.45;;
12896;SDS011;6516;35.028;32.372;2022-09-01T08:44:02;14.55;;;6.43;;
12896;SDS011;6516;35.028;32.372;2022-09-01T08:46:42;11.10;;;6.40;;
12896;SDS011;6516;35.028;32.372;2022-09-01T08:49:14;13.03;;;6.67;;
12896;SDS011;6516;35.028;32.372;2022-09-01T08:51:47;13.85;;;6.22;;
12896;SDS011;6516;35.028;32.372;2022-09-01T08:54:21;13.18;;;5.97;;
12896;SDS011;6516;35.028;32.372;2022-09-01T08:56:58;12.55;;;6.47;;
12896;SDS011;6516;35.028;32.372;2022-09-01T08:59:32;14.45;;;7.20;;
12896;SDS011;6516;35.028;32.372;2022-09-01T09:02:03;13.23;;;6.50;;
12896;SDS011;6516;35.028;32.372;2022-09-01T09:04:50;11.15;;;6.80;;
12896;SDS011;6516;35.028;32.372;2022-09-01T09:07:29;15.30;;;6.70;;
12896;SDS011;6516;35.028;32.372;2022-09-01T09:10:15;11.63;;;6.55;;
12896;SDS011;6516;35.028;32.372;2022-09-01T09:12:49;14.25;;;7.30;;
12896;SDS011;6516;35.028;32.372;2022-09-01T09:15:32;14.40;;;6.93;;
12896;SDS011;6516;35.028;32.372;2022-09-01T09:18:12;17.70;;;6.70;;
12896;SDS011;6516;35.028;32.372;2022-09-01T09:20:56;12.85;;;6.30;;
12896;SDS011;6516;35.028;32.372;2022-09-01T09:23:35;14.98;;;6.40;;
12896;SDS011;6516;35.028;32.372;2022-09-01T09:26:09;16.95;;;7.10;;
12896;SDS011;6516;35.028;32.372;2022-09-01T09:28:37;15.57;;;6.87;;
12896;SDS011;6516;35.028;32.372;2022-09-01T09:31:24;14.48;;;6.85;;
12896;SDS011;6516;35.028;32.372;2022-09-01T09:33:58;12.32;;;7.00;;
12896;SDS011;6516;35.028;32.372;2022-09-01T09:36:32;14.48;;;6.07;;
12896;SDS011;6516;35.028;32.372;2022-09-01T09:39:12;12.77;;;6.95;;
12896;SDS011;6516;35.028;32.372;2022-09-01T09:41:43;16.43;;;6.67;;
12896;SDS011;6516;35.028;32.372;2022-09-01T09:44:38;19.17;;;7.68;;
12896;SDS011;6516;35.028;32.372;2022-09-01T09:47:10;15.50;;;6.63;;
12896;SDS011;6516;35.028;32.372;2022-09-01T09:50:10;13.93;;;6.75;;
12896;SDS011;6516;35.028;32.372;2022-09-01T09:52:48;16.73;;;7.28;;
12896;SDS011;6516;35.028;32.372;2022-09-01T09:55:22;13.50;;;7.07;;
12896;SDS011;6516;35.028;32.372;2022-09-01T09:57:54;17.50;;;7.15;;
12896;SDS011;6516;35.028;32.372;2022-09-01T10:00:26;14.00;;;7.18;;
12896;SDS011;6516;35.028;32.372;2022-09-01T10:03:00;16.42;;;7.63;;
12896;SDS011;6516;35.028;32.372;2022-09-01T10:05:35;13.98;;;8.00;;
12896;SDS011;6516;35.028;32.372;2022-09-01T10:08:08;16.70;;;6.97;;
12896;SDS011;6516;35.028;32.372;2022-09-01T10:10:41;15.60;;;7.75;;
12896;SDS011;6516;35.028;32.372;2022-09-01T10:13:12;16.65;;;7.60;;
12896;SDS011;6516;35.028;32.372;2022-09-01T10:15:47;17.05;;;7.13;;
12896;SDS011;6516;35.028;32.372;2022-09-01T10:18:18;12.48;;;7.63;;
12896;SDS011;6516;35.028;32.372;2022-09-01T10:20:50;18.47;;;7.93;;
12896;SDS011;6516;35.028;32.372;2022-09-01T10:23:25;19.27;;;7.35;;
12896;SDS011;6516;35.028;32.372;2022-09-01T10:25:57;14.93;;;7.50;;
12896;SDS011;6516;35.028;32.372;2022-09-01T10:28:28;15.43;;;7.75;;
12896;SDS011;6516;35.028;32.372;2022-09-01T10:31:00;17.45;;;8.40;;
12896;SDS011;6516;35.028;32.372;2022-09-01T10:33:28;15.47;;;7.23;;
12896;SDS011;6516;35.028;32.372;2022-09-01T10:35:56;15.07;;;7.93;;
12896;SDS011;6516;35.028;32.372;2022-09-01T10:38:26;17.50;;;8.07;;
12896;SDS011;6516;35.028;32.372;2022-09-01T10:40:55;14.82;;;7.00;;
12896;SDS011;6516;35.028;32.372;2022-09-01T10:43:41;14.20;;;7.20;;
12896;SDS011;6516;35.028;32.372;2022-09-01T10:55:47;13.45;;;6.65;;
12896;SDS011;6516;35.028;32.372;2022-09-01T10:58:40;11.73;;;6.60;;
12896;SDS011;6516;35.028;32.372;2022-09-01T11:01:16;13.47;;;6.73;;
12896;SDS011;6516;35.028;32.372;2022-09-01T11:04:22;13.32;;;6.85;;
12896;SDS011;6516;35.028;32.372;2022-09-01T11:07:30;12.07;;;7.68;;
12896;SDS011;6516;35.028;32.372;2022-09-01T11:10:13;16.00;;;7.30;;
12896;SDS011;6516;35.028;32.372;2022-09-01T11:13:08;14.43;;;7.10;;
12896;SDS011;6516;35.028;32.372;2022-09-01T11:18:53;13.07;;;7.28;;
12896;SDS011;6516;35.028;32.372;2022-09-01T11:21:24;14.13;;;7.45;;
12896;SDS011;6516;35.028;32.372;2022-09-01T11:30:42;11.70;;;6.87;;
12896;SDS011;6516;35.028;32.372;2022-09-01T11:33:25;17.60;;;6.95;;
12896;SDS011;6516;35.028;32.372;2022-09-01T11:36:01;14.75;;;7.00;;
12896;SDS011;6516;35.028;32.372;2022-09-01T11:38:33;11.23;;;6.65;;
12896;SDS011;6516;35.028;32.372;2022-09-01T11:41:19;14.38;;;6.70;;
12896;SDS011;6516;35.028;32.372;2022-09-01T11:43:55;13.83;;;7.23;;
12896;SDS011;6516;35.028;32.372;2022-09-01T11:46:26;13.50;;;7.60;;
12896;SDS011;6516;35.028;32.372;2022-09-01T11:48:57;16.67;;;7.30;;
12896;SDS011;6516;35.028;32.372;2022-09-01T11:51:37;17.83;;;7.50;;
12896;SDS011;6516;35.028;32.372;2022-09-01T11:54:10;12.55;;;7.00;;
12896;SDS011;6516;35.028;32.372;2022-09-01T11:56:38;12.23;;;6.90;;
12896;SDS011;6516;35.028;32.372;2022-09-01T11:59:06;11.93;;;7.00;;
12896;SDS011;6516;35.028;32.372;2022-09-01T12:01:36;14.32;;;7.00;;
12896;SDS011;6516;35.028;32.372;2022-09-01T12:04:19;17.95;;;6.80;;
12896;SDS011;6516;35.028;32.372;2022-09-01T12:06:51;13.13;;;7.20;;
12896;SDS011;6516;35.028;32.372;2022-09-01T12:09:30;12.20;;;6.63;;
12896;SDS011;6516;35.028;32.372;2022-09-01T12:12:00;12.00;;;6.32;;
12896;SDS011;6516;35.028;32.372;2022-09-01T12:14:29;15.45;;;7.80;;
12896;SDS011;6516;35.028;32.372;2022-09-01T12:17:00;14.55;;;6.53;;
12896;SDS011;6516;35.028;32.372;2022-09-01T12:19:32;14.65;;;6.63;;
12896;SDS011;6516;35.028;32.372;2022-09-01T12:22:03;15.20;;;6.60;;
12896;SDS011;6516;35.028;32.372;2022-09-01T12:24:43;13.25;;;6.53;;
12896;SDS011;6516;35.028;32.372;2022-09-01T12:27:13;15.68;;;7.15;;
12896;SDS011;6516;35.028;32.372;2022-09-01T12:29:41;16.80;;;7.45;;
12896;SDS011;6516;35.028;32.372;2022-09-01T12:32:11;15.77;;;7.40;;
12896;SDS011;6516;35.028;32.372;2022-09-01T12:34:42;19.10;;;7.83;;
12896;SDS011;6516;35.028;32.372;2022-09-01T12:37:19;16.83;;;7.78;;
12896;SDS011;6516;35.028;32.372;2022-09-01T12:39:49;15.40;;;8.27;;
12896;SDS011;6516;35.028;32.372;2022-09-01T12:42:23;14.65;;;8.07;;
12896;SDS011;6516;35.028;32.372;2022-09-01T12:44:54;13.98;;;8.35;;
12896;SDS011;6516;35.028;32.372;2022-09-01T12:47:45;12.33;;;7.67;;
12896;SDS011;6516;35.028;32.372;2022-09-01T12:53:19;17.25;;;8.00;;
12896;SDS011;6516;35.028;32.372;2022-09-01T12:58:48;15.65;;;8.50;;
12896;SDS011;6516;35.028;32.372;2022-09-01T13:01:29;16.57;;;8.20;;
12896;SDS011;6516;35.028;32.372;2022-09-01T13:04:08;14.23;;;8.55;;
12896;SDS011;6516;35.028;32.372;2022-09-01T13:06:46;14.68;;;8.15;;
12896;SDS011;6516;35.028;32.372;2022-09-01T13:09:15;17.80;;;8.02;;
12896;SDS011;6516;35.028;32.372;2022-09-01T13:11:43;17.02;;;8.65;;
12896;SDS011;6516;35.028;32.372;2022-09-01T13:14:12;15.30;;;8.13;;
12896;SDS011;6516;35.028;32.372;2022-09-01T13:16:41;15.60;;;7.70;;
12896;SDS011;6516;35.028;32.372;2022-09-01T13:19:11;16.60;;;8.60;;
12896;SDS011;6516;35.028;32.372;2022-09-01T13:21:39;15.68;;;8.70;;
12896;SDS011;6516;35.028;32.372;2022-09-01T13:24:06;15.27;;;8.73;;
12896;SDS011;6516;35.028;32.372;2022-09-01T13:26:34;19.07;;;8.63;;
12896;SDS011;6516;35.028;32.372;2022-09-01T13:29:02;17.65;;;9.10;;
12896;SDS011;6516;35.028;32.372;2022-09-01T13:31:30;15.20;;;9.10;;
12896;SDS011;6516;35.028;32.372;2022-09-01T13:33:58;17.60;;;9.02;;
12896;SDS011;6516;35.028;32.372;2022-09-01T13:36:27;14.77;;;8.23;;
12896;SDS011;6516;35.028;32.372;2022-09-01T13:38:55;19.17;;;8.80;;
12896;SDS011;6516;35.028;32.372;2022-09-01T13:41:23;17.90;;;9.15;;
12896;SDS011;6516;35.028;32.372;2022-09-01T13:43:51;18.92;;;8.80;;
12896;SDS011;6516;35.028;32.372;2022-09-01T13:46:19;18.40;;;9.13;;
12896;SDS011;6516;35.028;32.372;2022-09-01T13:48:46;15.10;;;8.73;;
12896;SDS011;6516;35.028;32.372;2022-09-01T13:51:22;15.77;;;8.50;;
12896;SDS011;6516;35.028;32.372;2022-09-01T13:53:53;15.55;;;8.90;;
12896;SDS011;6516;35.028;32.372;2022-09-01T13:56:21;16.30;;;9.40;;
12896;SDS011;6516;35.028;32.372;2022-09-01T13:58:49;17.25;;;9.95;;
12896;SDS011;6516;35.028;32.372;2022-09-01T14:01:17;18.85;;;9.60;;
12896;SDS011;6516;35.028;32.372;2022-09-01T14:03:45;17.33;;;9.07;;
12896;SDS011;6516;35.028;32.372;2022-09-01T14:06:13;18.50;;;9.65;;
12896;SDS011;6516;35.028;32.372;2022-09-01T14:08:41;14.30;;;9.35;;
12896;SDS011;6516;35.028;32.372;2022-09-01T14:11:16;14.80;;;9.27;;
12896;SDS011;6516;35.028;32.372;2022-09-01T14:13:45;14.88;;;9.50;;
12896;SDS011;6516;35.028;32.372;2022-09-01T14:16:13;15.73;;;9.63;;
12896;SDS011;6516;35.028;32.372;2022-09-01T14:18:41;12.90;;;9.57;;
12896;SDS011;6516;35.028;32.372;2022-09-01T14:21:10;15.18;;;10.27;;
12896;SDS011;6516;35.028;32.372;2022-09-01T14:23:39;15.85;;;9.27;;
12896;SDS011;6516;35.028;32.372;2022-09-01T14:26:08;17.02;;;9.48;;
12896;SDS011;6516;35.028;32.372;2022-09-01T14:28:39;19.33;;;8.93;;
12896;SDS011;6516;35.028;32.372;2022-09-01T14:31:12;15.45;;;9.20;;
12896;SDS011;6516;35.028;32.372;2022-09-01T14:33:42;16.15;;;9.70;;
12896;SDS011;6516;35.028;32.372;2022-09-01T14:36:15;12.52;;;8.80;;
12896;SDS011;6516;35.028;32.372;2022-09-01T14:38:45;16.02;;;10.38;;
12896;SDS011;6516;35.028;32.372;2022-09-01T14:41:13;18.70;;;10.70;;
12896;SDS011;6516;35.028;32.372;2022-09-01T14:43:47;20.63;;;11.52;;
12896;SDS011;6516;35.028;32.372;2022-09-01T14:46:16;18.92;;;10.68;;
12896;SDS011;6516;35.028;32.372;2022-09-01T14:48:45;17.95;;;10.50;;
12896;SDS011;6516;35.028;32.372;2022-09-01T14:51:19;18.00;;;11.77;;
12896;SDS011;6516;35.028;32.372;2022-09-01T14:53:49;16.70;;;11.10;;
12896;SDS011;6516;35.028;32.372;2022-09-01T14:56:18;16.60;;;11.27;;
12896;SDS011;6516;35.028;32.372;2022-09-01T14:58:49;17.05;;;11.00;;
12896;SDS011;6516;35.028;32.372;2022-09-01T15:01:23;17.02;;;10.75;;
12896;SDS011;6516;35.028;32.372;2022-09-01T15:03:51;17.52;;;11.30;;
12896;SDS011;6516;35.028;32.372;2022-09-01T15:06:20;16.27;;;11.30;;
12896;SDS011;6516;35.028;32.372;2022-09-01T15:08:49;15.75;;;10.90;;
12896;SDS011;6516;35.028;32.372;2022-09-01T15:11:18;20.10;;;11.07;;
12896;SDS011;6516;35.028;32.372;2022-09-01T15:13:46;17.70;;;11.70;;
12896;SDS011;6516;35.028;32.372;2022-09-01T15:16:18;16.40;;;11.82;;
12896;SDS011;6516;35.028;32.372;2022-09-01T15:18:48;16.37;;;11.83;;
12896;SDS011;6516;35.028;32.372;2022-09-01T15:21:17;17.23;;;11.88;;